createdAt,value
2016-05-01T00:00:39.497Z,4
2016-05-01T00:01:39.359Z,4
2016-05-01T00:02:39.142Z,0
2016-05-01T00:03:39.161Z,4
2016-05-01T00:04:38.960Z,0
2016-05-01T00:05:39.370Z,0
2016-05-01T00:06:39.576Z,0
2016-05-01T00:07:39.718Z,0
2016-05-01T00:08:39.159Z,0
2016-05-01T00:09:39.505Z,4
2016-05-01T00:10:39.508Z,0
2016-05-01T00:11:39.714Z,0
2016-05-01T00:12:39.513Z,4
2016-05-01T00:13:39.532Z,0
2016-05-01T00:14:39.175Z,0
2016-05-01T00:15:39.709Z,4
2016-05-01T00:16:39.383Z,4
2016-05-01T00:17:39.715Z,4
2016-05-01T00:18:39.529Z,4
2016-05-01T00:19:39.376Z,4
2016-05-01T00:20:39.269Z,0
2016-05-01T00:21:39.115Z,0
2016-05-01T00:22:38.978Z,4
2016-05-01T00:23:39.323Z,4
2016-05-01T00:24:39.529Z,0
2016-05-01T00:25:39.532Z,0
2016-05-01T00:26:39.332Z,4
2016-05-01T00:27:38.756Z,4
2016-05-01T00:28:39.025Z,4
2016-05-01T00:29:39.168Z,4
2016-05-01T00:30:39.343Z,4
2016-05-01T00:31:39.549Z,0
2016-05-01T00:32:39.317Z,4
2016-05-01T00:33:39.320Z,4
2016-05-01T00:34:39.526Z,0
2016-05-01T00:35:39.169Z,0
2016-05-01T00:36:39.375Z,4
2016-05-01T00:37:39.533Z,4
2016-05-01T00:38:39.552Z,4
2016-05-01T00:39:39.149Z,4
2016-05-01T00:40:39.323Z,4
2016-05-01T00:41:39.341Z,4
2016-05-01T00:42:39.344Z,0
2016-05-01T00:43:39.535Z,4
2016-05-01T00:44:39.740Z,0
2016-05-01T00:45:39.586Z,4
2016-05-01T00:46:39.167Z,4
2016-05-01T00:47:39.421Z,4
2016-05-01T00:48:39.188Z,4
2016-05-01T00:49:39.331Z,4
2016-05-01T00:50:39.443Z,0
2016-05-01T00:51:39.399Z,0
2016-05-01T00:52:39.246Z,4
2016-05-01T00:53:39.749Z,4
2016-05-01T00:54:39.548Z,4
2016-05-01T00:55:39.551Z,4
2016-05-01T00:56:39.351Z,0
2016-05-01T00:57:39.135Z,4
2016-05-01T00:58:39.403Z,4
2016-05-01T00:59:39.203Z,4
2016-05-01T01:00:38.955Z,4
2016-05-01T01:01:39.754Z,4
2016-05-01T01:02:39.148Z,4
2016-05-01T01:03:39.353Z,4
2016-05-01T01:04:39.137Z,4
2016-05-01T01:05:39.577Z,4
2016-05-01T01:06:39.346Z,4
2016-05-01T01:07:39.599Z,4
2016-05-01T01:08:39.148Z,4
2016-05-01T01:09:39.744Z,4
2016-05-01T01:10:39.028Z,4
2016-05-01T01:11:39.547Z,0
2016-05-01T01:12:39.549Z,0
2016-05-01T01:13:39.350Z,0
2016-05-01T01:14:39.348Z,0
2016-05-01T01:15:39.554Z,0
2016-05-01T01:16:39.556Z,0
2016-05-01T01:17:39.137Z,0
2016-05-01T01:18:39.140Z,0
2016-05-01T01:19:39.753Z,0
2016-05-01T01:20:39.723Z,0
2016-05-01T01:21:39.742Z,0
2016-05-01T01:22:39.354Z,0
2016-05-01T01:23:39.356Z,0
2016-05-01T01:24:39.141Z,0
2016-05-01T01:25:39.346Z,0
2016-05-01T01:26:39.193Z,0
2016-05-01T01:27:39.352Z,0
2016-05-01T01:28:39.588Z,0
2016-05-01T01:29:38.639Z,0
2016-05-01T01:30:39.125Z,0
2016-05-01T01:31:39.143Z,0
2016-05-01T01:32:39.334Z,0
2016-05-01T01:33:39.383Z,0
2016-05-01T01:34:39.543Z,0
2016-05-01T01:35:39.452Z,0
2016-05-01T01:36:39.736Z,0
2016-05-01T01:37:39.597Z,0
2016-05-01T01:38:39.554Z,0
2016-05-01T01:39:39.149Z,0
2016-05-01T01:40:39.387Z,0
2016-05-01T01:41:39.749Z,0
2016-05-01T01:42:39.126Z,0
2016-05-01T01:43:39.535Z,0
2016-05-01T01:44:39.334Z,0
2016-05-01T01:45:39.525Z,0
2016-05-01T01:46:39.731Z,0
2016-05-01T01:47:39.328Z,0
2016-05-01T01:48:39.142Z,0
2016-05-01T01:49:39.317Z,0
2016-05-01T01:50:39.023Z,0
2016-05-01T01:51:39.525Z,0
2016-05-01T01:52:39.138Z,0
2016-05-01T01:53:39.530Z,0
2016-05-01T01:54:39.331Z,0
2016-05-01T01:55:39.334Z,0
2016-05-01T01:56:39.320Z,0
2016-05-01T01:57:39.166Z,0
2016-05-01T01:58:38.857Z,0
2016-05-01T01:59:38.985Z,0
2016-05-01T02:00:39.160Z,0
2016-05-01T02:01:39.318Z,0
2016-05-01T02:02:39.508Z,0
2016-05-01T02:03:39.511Z,0
2016-05-01T02:04:39.154Z,0
2016-05-01T02:05:39.173Z,0
2016-05-01T02:06:39.518Z,0
2016-05-01T02:07:39.303Z,0
2016-05-01T02:08:39.727Z,0
2016-05-01T02:09:39.293Z,0
2016-05-01T02:10:39.529Z,0
2016-05-01T02:11:39.502Z,0
2016-05-01T02:12:39.706Z,0
2016-05-01T02:13:39.350Z,0
2016-05-01T02:14:39.713Z,0
2016-05-01T02:15:39.496Z,0
2016-05-01T02:16:38.984Z,0
2016-05-01T02:17:39.284Z,0
2016-05-01T02:18:38.942Z,0
2016-05-01T02:19:39.539Z,0
2016-05-01T02:20:39.182Z,0
2016-05-01T02:21:39.294Z,0
2016-05-01T02:22:39.125Z,0
2016-05-01T02:23:39.081Z,0
2016-05-01T02:24:39.130Z,0
2016-05-01T02:25:39.492Z,0
2016-05-01T02:26:39.338Z,0
2016-05-01T02:27:39.278Z,0
2016-05-01T02:28:39.688Z,0
2016-05-01T02:29:39.299Z,0
2016-05-01T02:30:39.318Z,0
2016-05-01T02:31:39.102Z,0
2016-05-01T02:32:39.261Z,0
2016-05-01T02:33:39.482Z,0
2016-05-01T02:34:39.469Z,0
2016-05-01T02:35:39.347Z,0
2016-05-01T02:36:39.318Z,0
2016-05-01T02:37:39.305Z,0
2016-05-01T02:38:38.949Z,0
2016-05-01T02:39:39.265Z,0
2016-05-01T02:40:39.454Z,0
2016-05-01T02:41:39.066Z,0
2016-05-01T02:42:39.460Z,0
2016-05-01T02:43:39.462Z,0
2016-05-01T02:44:39.449Z,0
2016-05-01T02:45:39.248Z,0
2016-05-01T02:46:39.470Z,0
2016-05-01T02:47:39.098Z,0
2016-05-01T02:48:39.256Z,0
2016-05-01T02:49:39.650Z,0
2016-05-01T02:50:39.715Z,0
2016-05-01T02:51:39.234Z,0
2016-05-01T02:52:39.050Z,0
2016-05-01T02:53:39.442Z,0
2016-05-01T02:54:39.039Z,0
2016-05-01T02:55:39.432Z,0
2016-05-01T02:56:38.717Z,0
2016-05-01T02:57:39.031Z,0
2016-05-01T02:58:39.222Z,0
2016-05-01T02:59:39.474Z,0
2016-05-01T03:00:39.211Z,0
2016-05-01T03:01:39.199Z,0
2016-05-01T03:02:39.607Z,0
2016-05-01T03:03:39.422Z,0
2016-05-01T03:04:39.409Z,0
2016-05-01T03:05:39.302Z,0
2016-05-01T03:06:39.040Z,0
2016-05-01T03:07:39.198Z,0
2016-05-01T03:08:38.623Z,0
2016-05-01T03:09:39.032Z,0
2016-05-01T03:10:39.598Z,0
2016-05-01T03:11:39.397Z,0
2016-05-01T03:12:39.182Z,0
2016-05-01T03:13:38.964Z,0
2016-05-01T03:14:39.171Z,0
2016-05-01T03:15:39.220Z,0
2016-05-01T03:16:38.973Z,0
2016-05-01T03:17:39.023Z,0
2016-05-01T03:18:39.165Z,0
2016-05-01T03:19:39.372Z,0
2016-05-01T03:20:39.218Z,0
2016-05-01T03:21:39.408Z,0
2016-05-01T03:22:39.176Z,0
2016-05-01T03:23:39.351Z,0
2016-05-01T03:24:39.228Z,0
2016-05-01T03:25:39.138Z,0
2016-05-01T03:26:39.141Z,0
2016-05-01T03:27:39.347Z,0
2016-05-01T03:28:39.052Z,0
2016-05-01T03:29:39.336Z,0
2016-05-01T03:30:39.230Z,0
2016-05-01T03:31:38.983Z,0
2016-05-01T03:32:39.125Z,0
2016-05-01T03:33:38.769Z,0
2016-05-01T03:34:39.334Z,0
2016-05-01T03:35:39.774Z,0
2016-05-01T03:36:39.543Z,0
2016-05-01T03:37:39.327Z,0
2016-05-01T03:38:39.110Z,0
2016-05-01T03:39:39.316Z,0
2016-05-01T03:40:38.694Z,0
2016-05-01T03:41:39.321Z,0
2016-05-01T03:42:39.293Z,0
2016-05-01T03:43:39.296Z,0
2016-05-01T03:44:39.501Z,0
2016-05-01T03:45:39.301Z,0
2016-05-01T03:46:39.085Z,0
2016-05-01T03:47:39.087Z,0
2016-05-01T03:48:39.075Z,0
2016-05-01T03:49:38.873Z,0
2016-05-01T03:50:38.876Z,0
2016-05-01T03:51:39.067Z,0
2016-05-01T03:52:39.289Z,0
2016-05-01T03:53:39.276Z,0
2016-05-01T03:54:39.263Z,0
2016-05-01T03:55:39.265Z,0
2016-05-01T03:56:39.050Z,0
2016-05-01T03:57:39.475Z,0
2016-05-01T03:58:39.258Z,0
2016-05-01T03:59:38.886Z,0
2016-05-01T04:00:38.841Z,0
2016-05-01T04:01:39.031Z,0
2016-05-01T04:02:39.097Z,0
2016-05-01T04:03:38.630Z,0
2016-05-01T04:04:39.243Z,0
2016-05-01T04:05:39.073Z,0
2016-05-01T04:06:39.419Z,0
2016-05-01T04:07:39.016Z,0
2016-05-01T04:08:38.816Z,0
2016-05-01T04:09:39.006Z,0
2016-05-01T04:10:39.009Z,0
2016-05-01T04:11:38.652Z,0
2016-05-01T04:12:38.796Z,0
2016-05-01T04:13:38.627Z,0
2016-05-01T04:14:38.895Z,0
2016-05-01T04:15:39.194Z,0
2016-05-01T04:16:39.025Z,0
2016-05-01T04:17:39.184Z,0
2016-05-01T04:18:38.687Z,0
2016-05-01T04:19:39.251Z,0
2016-05-01T04:20:39.379Z,0
2016-05-01T04:21:38.804Z,0
2016-05-01T04:22:39.134Z,0
2016-05-01T04:23:38.809Z,0
2016-05-01T04:24:38.749Z,0
2016-05-01T04:25:38.752Z,0
2016-05-01T04:26:38.958Z,0
2016-05-01T04:27:38.945Z,0
2016-05-01T04:28:38.995Z,0
2016-05-01T04:29:38.779Z,0
2016-05-01T04:30:39.125Z,0
2016-05-01T04:31:39.144Z,0
2016-05-01T04:32:38.928Z,0
2016-05-01T04:33:38.727Z,0
2016-05-01T04:34:38.699Z,0
2016-05-01T04:35:39.327Z,0
2016-05-01T04:36:39.110Z,0
2016-05-01T04:37:38.894Z,0
2016-05-01T04:38:38.896Z,0
2016-05-01T04:39:38.712Z,0
2016-05-01T04:40:38.699Z,0
2016-05-01T04:41:38.873Z,0
2016-05-01T04:42:39.079Z,0
2016-05-01T04:43:39.082Z,0
2016-05-01T04:44:39.084Z,0
2016-05-01T04:45:38.306Z,0
2016-05-01T04:46:38.715Z,0
2016-05-01T04:47:38.562Z,0
2016-05-01T04:48:39.268Z,0
2016-05-01T04:49:39.068Z,0
2016-05-01T04:50:39.194Z,0
2016-05-01T04:51:39.260Z,0
2016-05-01T04:52:38.512Z,0
2016-05-01T04:53:38.687Z,0
2016-05-01T04:54:38.831Z,0
2016-05-01T04:55:38.630Z,0
2016-05-01T04:56:38.523Z,0
2016-05-01T04:57:39.041Z,0
2016-05-01T04:58:38.809Z,0
2016-05-01T04:59:39.016Z,0
2016-05-01T05:00:39.080Z,0
2016-05-01T05:01:39.208Z,0
2016-05-01T05:02:38.602Z,0
2016-05-01T05:03:39.011Z,0
2016-05-01T05:04:38.623Z,0
2016-05-01T05:05:38.657Z,0
2016-05-01T05:06:38.628Z,0
2016-05-01T05:07:38.850Z,0
2016-05-01T05:08:38.572Z,0
2016-05-01T05:09:38.761Z,0
2016-05-01T05:10:38.764Z,0
2016-05-01T05:11:39.173Z,0
2016-05-01T05:12:38.769Z,0
2016-05-01T05:13:39.163Z,0
2016-05-01T05:14:38.759Z,0
2016-05-01T05:15:38.762Z,0
2016-05-01T05:16:38.952Z,0
2016-05-01T05:17:39.001Z,0
2016-05-01T05:18:38.535Z,0
2016-05-01T05:19:38.756Z,0
2016-05-01T05:20:38.868Z,0
2016-05-01T05:21:38.918Z,0
2016-05-01T05:22:38.921Z,0
2016-05-01T05:23:38.909Z,0
2016-05-01T05:24:38.912Z,0
2016-05-01T05:25:38.913Z,0
2016-05-01T05:26:38.901Z,0
2016-05-01T05:27:38.685Z,0
2016-05-01T05:28:38.953Z,0
2016-05-01T05:29:38.737Z,0
2016-05-01T05:30:38.880Z,0
2016-05-01T05:31:38.523Z,0
2016-05-01T05:32:38.667Z,0
2016-05-01T05:33:39.091Z,0
2016-05-01T05:34:38.656Z,0
2016-05-01T05:35:38.988Z,0
2016-05-01T05:36:38.646Z,0
2016-05-01T05:37:38.853Z,0
2016-05-01T05:38:38.855Z,0
2016-05-01T05:39:39.060Z,0
2016-05-01T05:40:38.454Z,0
2016-05-01T05:41:38.425Z,0
2016-05-01T05:42:38.677Z,0
2016-05-01T05:43:38.635Z,0
2016-05-01T05:44:38.824Z,0
2016-05-01T05:45:38.827Z,0
2016-05-01T05:46:38.611Z,0
2016-05-01T05:47:38.395Z,0
2016-05-01T05:48:38.601Z,0
2016-05-01T05:49:38.385Z,0
2016-05-01T05:50:38.935Z,0
2016-05-01T05:51:38.062Z,0
2016-05-01T05:52:38.846Z,0
2016-05-01T05:53:38.567Z,0
2016-05-01T05:54:38.757Z,0
2016-05-01T05:55:38.620Z,0
2016-05-01T05:56:38.778Z,0
2016-05-01T05:57:38.562Z,0
2016-05-01T05:58:38.752Z,0
2016-05-01T05:59:38.755Z,0
2016-05-01T06:00:38.383Z,0
2016-05-01T06:01:38.541Z,0
2016-05-01T06:02:38.122Z,0
2016-05-01T06:03:38.547Z,0
2016-05-01T06:04:38.112Z,0
2016-05-01T06:05:39.131Z,0
2016-05-01T06:06:38.602Z,0
2016-05-01T06:07:38.916Z,0
2016-05-01T06:08:38.498Z,0
2016-05-01T06:09:38.501Z,0
2016-05-01T06:10:38.368Z,0
2016-05-01T06:11:38.521Z,0
2016-05-01T06:12:38.528Z,0
2016-05-01T06:13:38.966Z,0
2016-05-01T06:14:38.125Z,0
2016-05-01T06:15:38.455Z,0
2016-05-01T06:16:38.458Z,0
2016-05-01T06:17:38.460Z,0
2016-05-01T06:18:38.666Z,0
2016-05-01T06:19:37.888Z,0
2016-05-01T06:20:38.328Z,0
2016-05-01T06:21:38.440Z,0
2016-05-01T06:22:38.677Z,0
2016-05-01T06:23:38.274Z,0
2016-05-01T06:24:38.636Z,0
2016-05-01T06:25:38.419Z,0
2016-05-01T06:26:38.266Z,0
2016-05-01T06:27:38.393Z,0
2016-05-01T06:28:38.459Z,0
2016-05-01T06:29:38.399Z,0
2016-05-01T06:30:38.432Z,0
2016-05-01T06:31:38.608Z,0
2016-05-01T06:32:38.438Z,0
2016-05-01T06:33:38.394Z,0
2016-05-01T06:34:38.569Z,0
2016-05-01T06:35:39.446Z,0
2016-05-01T06:36:38.168Z,0
2016-05-01T06:37:38.343Z,0
2016-05-01T06:38:38.048Z,0
2016-05-01T06:39:38.207Z,0
2016-05-01T06:40:38.351Z,0
2016-05-01T06:41:38.370Z,0
2016-05-01T06:42:38.137Z,0
2016-05-01T06:43:38.531Z,0
2016-05-01T06:44:38.127Z,0
2016-05-01T06:45:38.723Z,0
2016-05-01T06:46:38.305Z,0
2016-05-01T06:47:38.307Z,0
2016-05-01T06:48:38.513Z,0
2016-05-01T06:49:38.703Z,0
2016-05-01T06:50:39.234Z,0
2016-05-01T06:51:38.200Z,0
2016-05-01T06:52:38.465Z,0
2016-05-01T06:53:38.432Z,0
2016-05-01T06:54:38.664Z,0
2016-05-01T06:55:38.489Z,0
2016-05-01T06:56:38.491Z,0
2016-05-01T06:57:38.306Z,0
2016-05-01T06:58:38.527Z,0
2016-05-01T06:59:38.546Z,0
2016-05-01T07:00:38.572Z,0
2016-05-01T07:01:38.331Z,0
2016-05-01T07:02:38.744Z,0
2016-05-01T07:03:38.535Z,0
2016-05-01T07:04:38.730Z,0
2016-05-01T07:05:38.033Z,0
2016-05-01T07:06:38.334Z,0
2016-05-01T07:07:38.308Z,0
2016-05-01T07:08:38.156Z,0
2016-05-01T07:09:38.520Z,0
2016-05-01T07:10:38.884Z,0
2016-05-01T07:11:38.511Z,0
2016-05-01T07:12:38.297Z,0
2016-05-01T07:13:38.706Z,0
2016-05-01T07:14:38.710Z,0
2016-05-01T07:15:38.494Z,0
2016-05-01T07:16:38.482Z,0
2016-05-01T07:17:38.734Z,0
2016-05-01T07:18:38.473Z,0
2016-05-01T07:19:38.521Z,0
2016-05-01T07:20:38.885Z,0
2016-05-01T07:21:38.262Z,0
2016-05-01T07:22:38.249Z,0
2016-05-01T07:23:38.346Z,0
2016-05-01T07:24:38.082Z,0
2016-05-01T07:25:38.492Z,0
2016-05-01T07:26:38.650Z,0
2016-05-01T07:27:38.247Z,0
2016-05-01T07:28:38.265Z,0
2016-05-01T07:29:38.628Z,0
2016-05-01T07:30:37.848Z,0
2016-05-01T07:31:38.242Z,0
2016-05-01T07:32:38.432Z,0
2016-05-01T07:33:38.607Z,0
2016-05-01T07:34:38.391Z,0
2016-05-01T07:35:38.144Z,0
2016-05-01T07:36:38.380Z,0
2016-05-01T07:37:38.228Z,0
2016-05-01T07:38:38.464Z,0
2016-05-01T07:39:38.044Z,0
2016-05-01T07:40:38.766Z,0
2016-05-01T07:41:38.347Z,0
2016-05-01T07:42:38.350Z,0
2016-05-01T07:43:38.133Z,0
2016-05-01T07:44:38.589Z,0
2016-05-01T07:45:38.530Z,0
2016-05-01T07:46:38.533Z,0
2016-05-01T07:47:38.379Z,0
2016-05-01T07:48:38.304Z,0
2016-05-01T07:49:38.118Z,0
2016-05-01T07:50:38.012Z,0
2016-05-01T07:51:38.108Z,0
2016-05-01T07:52:38.298Z,0
2016-05-01T07:53:38.488Z,0
2016-05-01T07:54:38.695Z,0
2016-05-01T07:55:38.119Z,0
2016-05-01T07:56:38.512Z,0
2016-05-01T07:57:38.281Z,0
2016-05-01T07:58:38.471Z,0
2016-05-01T07:59:37.709Z,0
2016-05-01T08:00:38.101Z,0
2016-05-01T08:01:38.667Z,0
2016-05-01T08:02:38.247Z,0
2016-05-01T08:03:38.031Z,0
2016-05-01T08:04:38.424Z,0
2016-05-01T08:05:38.490Z,0
2016-05-01T08:06:38.070Z,0
2016-05-01T08:07:38.213Z,0
2016-05-01T08:08:38.061Z,0
2016-05-01T08:09:38.251Z,0
2016-05-01T08:10:38.409Z,0
2016-05-01T08:11:38.194Z,0
2016-05-01T08:12:37.881Z,0
2016-05-01T08:13:38.386Z,0
2016-05-01T08:14:38.183Z,0
2016-05-01T08:15:38.201Z,0
2016-05-01T08:16:38.204Z,0
2016-05-01T08:17:38.207Z,0
2016-05-01T08:18:38.366Z,0
2016-05-01T08:19:38.149Z,0
2016-05-01T08:20:38.215Z,0
2016-05-01T08:21:37.593Z,0
2016-05-01T08:22:38.143Z,0
2016-05-01T08:23:38.333Z,0
2016-05-01T08:24:37.913Z,0
2016-05-01T08:25:38.118Z,0
2016-05-01T08:26:38.309Z,0
2016-05-01T08:27:37.906Z,0
2016-05-01T08:28:37.736Z,0
2016-05-01T08:29:38.537Z,0
2016-05-01T08:30:38.086Z,0
2016-05-01T08:31:38.260Z,0
2016-05-01T08:32:38.075Z,0
2016-05-01T08:33:38.063Z,0
2016-05-01T08:34:38.081Z,0
2016-05-01T08:35:38.193Z,0
2016-05-01T08:36:38.259Z,0
2016-05-01T08:37:38.229Z,0
2016-05-01T08:38:38.061Z,0
2016-05-01T08:39:37.720Z,0
2016-05-01T08:40:38.066Z,0
2016-05-01T08:41:37.708Z,0
2016-05-01T08:42:38.009Z,0
2016-05-01T08:43:38.011Z,0
2016-05-01T08:44:38.404Z,0
2016-05-01T08:45:38.000Z,0
2016-05-01T08:46:38.003Z,0
2016-05-01T08:47:37.991Z,0
2016-05-01T08:48:37.978Z,0
2016-05-01T08:49:37.980Z,0
2016-05-01T08:50:39.124Z,0
2016-05-01T08:51:38.032Z,0
2016-05-01T08:52:37.816Z,0
2016-05-01T08:53:37.944Z,0
2016-05-01T08:54:37.743Z,0
2016-05-01T08:55:38.357Z,0
2016-05-01T08:56:37.780Z,0
2016-05-01T08:57:37.579Z,0
2016-05-01T08:58:38.130Z,0
2016-05-01T08:59:37.773Z,0
2016-05-01T09:00:37.963Z,0
2016-05-01T09:01:37.904Z,0
2016-05-01T09:02:37.906Z,0
2016-05-01T09:03:37.955Z,0
2016-05-01T09:04:37.896Z,0
2016-05-01T09:05:38.711Z,0
2016-05-01T09:06:37.526Z,0
2016-05-01T09:07:37.373Z,0
2016-05-01T09:08:37.875Z,0
2016-05-01T09:09:38.065Z,0
2016-05-01T09:10:37.911Z,0
2016-05-01T09:11:38.242Z,0
2016-05-01T09:12:38.089Z,0
2016-05-01T09:13:38.030Z,0
2016-05-01T09:14:37.625Z,0
2016-05-01T09:15:37.316Z,0
2016-05-01T09:16:37.678Z,0
2016-05-01T09:17:37.822Z,0
2016-05-01T09:18:37.808Z,0
2016-05-01T09:19:37.655Z,0
2016-05-01T09:20:38.689Z,0
2016-05-01T09:21:37.848Z,0
2016-05-01T09:22:37.819Z,0
2016-05-01T09:23:37.373Z,4
2016-05-01T09:24:37.782Z,4
2016-05-01T09:25:37.566Z,4
2016-05-01T09:26:37.865Z,4
2016-05-01T09:27:37.416Z,4
2016-05-01T09:28:37.746Z,4
2016-05-01T09:29:37.781Z,4
2016-05-01T09:30:37.752Z,0
2016-05-01T09:31:37.957Z,0
2016-05-01T09:32:37.928Z,0
2016-05-01T09:33:37.729Z,0
2016-05-01T09:34:37.731Z,0
2016-05-01T09:35:37.984Z,0
2016-05-01T09:36:37.721Z,0
2016-05-01T09:37:38.115Z,0
2016-05-01T09:38:37.601Z,0
2016-05-01T09:39:37.745Z,0
2016-05-01T09:40:37.731Z,0
2016-05-01T09:41:37.688Z,0
2016-05-01T09:42:38.080Z,0
2016-05-01T09:43:37.662Z,0
2016-05-01T09:44:37.868Z,0
2016-05-01T09:45:37.652Z,0
2016-05-01T09:46:37.467Z,0
2016-05-01T09:47:37.641Z,0
2016-05-01T09:48:37.238Z,0
2016-05-01T09:49:37.428Z,0
2016-05-01T09:50:37.680Z,0
2016-05-01T09:51:37.855Z,0
2016-05-01T09:52:37.827Z,0
2016-05-01T09:53:37.611Z,0
2016-05-01T09:54:37.613Z,0
2016-05-01T09:55:37.803Z,0
2016-05-01T09:56:37.588Z,0
2016-05-01T09:57:37.793Z,0
2016-05-01T09:58:37.436Z,0
2016-05-01T09:59:37.252Z,0
2016-05-01T10:00:37.380Z,0
2016-05-01T10:01:37.382Z,0
2016-05-01T10:02:37.416Z,0
2016-05-01T10:03:37.762Z,0
2016-05-01T10:04:37.406Z,0
2016-05-01T10:05:37.565Z,0
2016-05-01T10:06:37.598Z,0
2016-05-01T10:07:37.805Z,0
2016-05-01T10:08:37.729Z,0
2016-05-01T10:09:37.325Z,0
2016-05-01T10:10:37.578Z,0
2016-05-01T10:11:37.722Z,0
2016-05-01T10:12:37.725Z,0
2016-05-01T10:13:37.149Z,0
2016-05-01T10:14:37.510Z,0
2016-05-01T10:15:37.295Z,0
2016-05-01T10:16:37.689Z,0
2016-05-01T10:17:37.331Z,0
2016-05-01T10:18:37.475Z,0
2016-05-01T10:19:37.290Z,0
2016-05-01T10:20:38.152Z,0
2016-05-01T10:21:37.874Z,0
2016-05-01T10:22:37.502Z,0
2016-05-01T10:23:37.520Z,0
2016-05-01T10:24:37.866Z,0
2016-05-01T10:25:37.463Z,0
2016-05-01T10:26:37.840Z,0
2016-05-01T10:27:37.640Z,0
2016-05-01T10:28:37.282Z,0
2016-05-01T10:29:37.426Z,0
2016-05-01T10:30:37.491Z,0
2016-05-01T10:31:37.838Z,0
2016-05-01T10:32:37.013Z,0
2016-05-01T10:33:37.249Z,0
2016-05-01T10:34:37.424Z,0
2016-05-01T10:35:38.004Z,0
2016-05-01T10:36:37.789Z,0
2016-05-01T10:37:37.791Z,0
2016-05-01T10:38:37.982Z,0
2016-05-01T10:39:37.579Z,0
2016-05-01T10:40:37.425Z,0
2016-05-01T10:41:37.380Z,0
2016-05-01T10:42:37.211Z,0
2016-05-01T10:43:37.041Z,0
2016-05-01T10:44:37.154Z,0
2016-05-01T10:45:37.361Z,0
2016-05-01T10:46:37.363Z,0
2016-05-01T10:47:37.397Z,0
2016-05-01T10:48:37.633Z,0
2016-05-01T10:49:37.527Z,0
2016-05-01T10:50:37.169Z,0
2016-05-01T10:51:37.516Z,0
2016-05-01T10:52:37.176Z,0
2016-05-01T10:53:37.147Z,0
2016-05-01T10:54:37.353Z,0
2016-05-01T10:55:37.715Z,0
2016-05-01T10:56:37.499Z,0
2016-05-01T10:57:36.985Z,0
2016-05-01T10:58:37.285Z,0
2016-05-01T10:59:36.944Z,0
2016-05-01T11:00:37.275Z,0
2016-05-01T11:01:37.684Z,0
2016-05-01T11:02:37.156Z,0
2016-05-01T11:03:37.455Z,0
2016-05-01T11:04:36.864Z,0
2016-05-01T11:05:37.398Z,0
2016-05-01T11:06:37.260Z,0
2016-05-01T11:07:37.044Z,0
2016-05-01T11:08:36.890Z,0
2016-05-01T11:09:37.237Z,0
2016-05-01T11:10:37.067Z,0
2016-05-01T11:11:37.242Z,0
2016-05-01T11:12:37.229Z,0
2016-05-01T11:13:37.279Z,0
2016-05-01T11:14:37.219Z,0
2016-05-01T11:15:37.487Z,0
2016-05-01T11:16:36.803Z,0
2016-05-01T11:17:37.196Z,0
2016-05-01T11:18:37.042Z,0
2016-05-01T11:19:37.045Z,0
2016-05-01T11:20:37.611Z,36
2016-05-01T11:21:37.175Z,24
2016-05-01T11:22:37.585Z,28
2016-05-01T11:23:37.213Z,28
2016-05-01T11:24:37.168Z,24
2016-05-01T11:25:36.968Z,24
2016-05-01T11:26:36.971Z,24
2016-05-01T11:27:37.004Z,28
2016-05-01T11:28:37.147Z,28
2016-05-01T11:29:36.775Z,28
2016-05-01T11:30:36.982Z,28
2016-05-01T11:31:36.937Z,28
2016-05-01T11:32:36.768Z,24
2016-05-01T11:33:36.926Z,28
2016-05-01T11:34:37.320Z,24
2016-05-01T11:35:37.041Z,28
2016-05-01T11:36:37.513Z,28
2016-05-01T11:37:36.921Z,28
2016-05-01T11:38:37.112Z,28
2016-05-01T11:39:37.302Z,28
2016-05-01T11:40:37.304Z,28
2016-05-01T11:41:37.104Z,28
2016-05-01T11:42:37.498Z,28
2016-05-01T11:43:37.297Z,28
2016-05-01T11:44:36.925Z,28
2016-05-01T11:45:36.927Z,28
2016-05-01T11:46:36.867Z,32
2016-05-01T11:47:37.058Z,28
2016-05-01T11:48:37.061Z,28
2016-05-01T11:49:36.891Z,28
2016-05-01T11:50:36.911Z,28
2016-05-01T11:51:37.053Z,28
2016-05-01T11:52:37.446Z,28
2016-05-01T11:53:37.044Z,28
2016-05-01T11:54:36.842Z,32
2016-05-01T11:55:36.877Z,28
2016-05-01T11:56:37.019Z,28
2016-05-01T11:57:37.038Z,28
2016-05-01T11:58:36.853Z,28
2016-05-01T11:59:36.871Z,28
2016-05-01T12:00:37.265Z,28
2016-05-01T12:01:37.080Z,28
2016-05-01T12:02:36.988Z,32
2016-05-01T12:03:37.226Z,32
2016-05-01T12:04:37.198Z,32
2016-05-01T12:05:39.825Z,28
2016-05-01T12:06:36.843Z,28
2016-05-01T12:07:36.626Z,28
2016-05-01T12:08:37.380Z,32
2016-05-01T12:09:37.165Z,32
2016-05-01T12:10:36.948Z,28
2016-05-01T12:11:36.607Z,32
2016-05-01T12:12:37.359Z,28
2016-05-01T12:13:36.956Z,28
2016-05-01T12:14:36.584Z,28
2016-05-01T12:15:36.977Z,28
2016-05-01T12:16:37.339Z,28
2016-05-01T12:17:36.982Z,28
2016-05-01T12:18:36.735Z,28
2016-05-01T12:19:36.972Z,28
2016-05-01T12:20:36.866Z,28
2016-05-01T12:21:36.915Z,28
2016-05-01T12:22:36.590Z,28
2016-05-01T12:23:36.905Z,32
2016-05-01T12:24:36.907Z,32
2016-05-01T12:25:37.113Z,28
2016-05-01T12:26:36.913Z,32
2016-05-01T12:27:36.744Z,32
2016-05-01T12:28:36.887Z,32
2016-05-01T12:29:36.686Z,32
2016-05-01T12:30:36.938Z,32
2016-05-01T12:31:36.880Z,28
2016-05-01T12:32:36.710Z,32
2016-05-01T12:33:36.510Z,32
2016-05-01T12:34:36.466Z,32
2016-05-01T12:35:36.765Z,28
2016-05-01T12:36:36.330Z,32
2016-05-01T12:37:37.098Z,32
2016-05-01T12:38:36.851Z,28
2016-05-01T12:39:36.698Z,32
2016-05-01T12:40:36.841Z,28
2016-05-01T12:41:36.843Z,28
2016-05-01T12:42:36.893Z,28
2016-05-01T12:43:36.490Z,20
2016-05-01T12:44:36.836Z,24
2016-05-01T12:45:36.839Z,24
2016-05-01T12:46:37.028Z,24
2016-05-01T12:47:36.813Z,28
2016-05-01T12:48:36.613Z,28
2016-05-01T12:49:36.803Z,28
2016-05-01T12:50:37.697Z,28
2016-05-01T12:51:37.011Z,28
2016-05-01T12:52:36.670Z,32
2016-05-01T12:53:36.454Z,32
2016-05-01T12:54:36.832Z,28
2016-05-01T12:55:36.991Z,28
2016-05-01T12:56:37.228Z,32
2016-05-01T12:57:36.637Z,28
2016-05-01T12:58:36.827Z,28
2016-05-01T12:59:36.985Z,28
2016-05-01T13:00:36.457Z,28
2016-05-01T13:01:36.757Z,28
2016-05-01T13:02:36.760Z,32
2016-05-01T13:03:36.825Z,28
2016-05-01T13:04:36.202Z,28
2016-05-01T13:05:37.627Z,32
2016-05-01T13:06:36.568Z,32
2016-05-01T13:07:36.945Z,28
2016-05-01T13:08:36.745Z,28
2016-05-01T13:09:36.793Z,28
2016-05-01T13:10:37.140Z,28
2016-05-01T13:11:36.581Z,32
2016-05-01T13:12:36.740Z,28
2016-05-01T13:13:36.367Z,28
2016-05-01T13:14:36.729Z,28
2016-05-01T13:15:36.575Z,32
2016-05-01T13:16:36.719Z,32
2016-05-01T13:17:36.925Z,28
2016-05-01T13:18:36.756Z,32
2016-05-01T13:19:36.555Z,32
2016-05-01T13:20:36.558Z,28
2016-05-01T13:21:36.951Z,32
2016-05-01T13:22:36.703Z,32
2016-05-01T13:23:36.753Z,32
2016-05-01T13:24:36.741Z,28
2016-05-01T13:25:37.087Z,28
2016-05-01T13:26:36.730Z,28
2016-05-01T13:27:36.546Z,28
2016-05-01T13:28:37.094Z,28
2016-05-01T13:29:36.472Z,32
2016-05-01T13:30:36.882Z,32
2016-05-01T13:31:36.682Z,28
2016-05-01T13:32:36.653Z,28
2016-05-01T13:33:36.702Z,28
2016-05-01T13:34:36.455Z,32
2016-05-01T13:35:37.005Z,28
2016-05-01T13:36:36.524Z,28
2016-05-01T13:37:36.525Z,32
2016-05-01T13:38:36.497Z,32
2016-05-01T13:39:36.640Z,28
2016-05-01T13:40:36.096Z,28
2016-05-01T13:41:36.895Z,32
2016-05-01T13:42:36.274Z,32
2016-05-01T13:43:36.432Z,32
2016-05-01T13:44:36.887Z,28
2016-05-01T13:45:36.312Z,28
2016-05-01T13:46:36.222Z,28
2016-05-01T13:47:36.287Z,28
2016-05-01T13:48:36.462Z,28
2016-05-01T13:49:36.606Z,28
2016-05-01T13:50:37.576Z,28
2016-05-01T13:51:37.204Z,28
2016-05-01T13:52:37.675Z,24
2016-05-01T13:53:36.803Z,28
2016-05-01T13:54:36.806Z,28
2016-05-01T13:55:36.605Z,28
2016-05-01T13:56:36.999Z,28
2016-05-01T13:57:36.610Z,28
2016-05-01T13:58:36.238Z,24
2016-05-01T13:59:36.585Z,28
2016-05-01T14:00:36.791Z,28
2016-05-01T14:01:36.450Z,28
2016-05-01T14:02:36.577Z,28
2016-05-01T14:03:36.986Z,32
2016-05-01T14:04:36.771Z,28
2016-05-01T14:05:36.116Z,28
2016-05-01T14:06:36.401Z,32
2016-05-01T14:07:36.763Z,32
2016-05-01T14:08:36.406Z,32
2016-05-01T14:09:36.784Z,28
2016-05-01T14:10:36.551Z,28
2016-05-01T14:11:36.555Z,28
2016-05-01T14:12:36.604Z,28
2016-05-01T14:13:36.809Z,32
2016-05-01T14:14:36.593Z,32
2016-05-01T14:15:36.440Z,28
2016-05-01T14:16:36.553Z,32
2016-05-01T14:17:36.946Z,32
2016-05-01T14:18:36.526Z,32
2016-05-01T14:19:36.732Z,32
2016-05-01T14:20:36.751Z,28
2016-05-01T14:21:36.534Z,28
2016-05-01T14:22:36.740Z,32
2016-05-01T14:23:36.915Z,32
2016-05-01T14:24:36.589Z,32
2016-05-01T14:25:36.717Z,32
2016-05-01T14:26:36.767Z,36
2016-05-01T14:27:36.316Z,36
2016-05-01T14:28:36.725Z,36
2016-05-01T14:29:36.508Z,32
2016-05-01T14:30:36.293Z,36
2016-05-01T14:31:36.311Z,36
2016-05-01T14:32:36.705Z,36
2016-05-01T14:33:36.910Z,36
2016-05-01T14:34:36.147Z,36
2016-05-01T14:35:37.479Z,36
2016-05-01T14:36:36.902Z,36
2016-05-01T14:37:36.485Z,40
2016-05-01T14:38:36.330Z,36
2016-05-01T14:39:36.489Z,40